Brussels, WI

6:17 AM CDT on October 24, 2014 (GMT -0500)
Door County Cherryland | Change Station
CLOSE
Current Station
Airport
Location: Sturgeon Bay,
Elevation: 725 ft
Nearby Weather Stations

Elev 725 ft 44.84 °N, 87.42 °W | Updated 22 minutes ago

Overcast
Overcast
48 °F
Feels Like 48 °F
N
5
Wind Variable Wind from WSW

Today
High -- | Low -- °F
--% Chance of Precip.
Yesterday
High -- | Low -- °F
Precip. -- in
7:17 AM 5:50 PM
New Moon, 0% visible
Pressure 30.01 in
Visibility 4.0 miles
Clouds Overcast 1200 ft
Dew Point 45 °F
Humidity 87%
Rainfall 0.00 in
Snow Depth Not available.
UV 0 out of 12
Pollen .90 out of 12
Air Quality Not available.
Flu Activity Sporadic
METAR KSUE 241055Z AUTO 25004KT 4SM OVC012 09/07 A3001 RMK AO1

More Conditions Fewer Conditions

Pressure 30.01 in
Visibility 4.0 miles
Clouds Overcast 1200 ft
Dew Point 45 °F
Humidity 87%
Rainfall 0.00 in
Snow Depth Not available.
UV 0 out of 12
Pollen .90 out of 12
Air Quality Not available.
Flu Activity Sporadic
METAR KSUE 241055Z AUTO 25004KT 4SM OVC012 09/07 A3001 RMK AO1

More Conditions Fewer Conditions

10-Day Weather Forecast

Almanac

Astronomy

Oct. 24, 2014 Rise Set
Actual Time 7:17 AM CDT 5:50 PM CDT
Civil Twilight 6:47 AM CDT 6:20 PM CDT
Nautical Twilight 6:13 AM CDT 6:55 PM CDT
Astronomical Twilight 5:39 AM CDT 7:28 PM CDT
Moon 7:57 AM CDT 6:28 PM CDT
Length of Visible Light 11h 33m
Length of Day
10h 33m
Tomorrow will be 2m 54s shorter.
New Moon, 0% of the Moon is Illuminated
Today
New Moon
Oct 30
First Quarter
Nov 6
Full
Nov 14
Last Quarter
Nov 22
New

Today's Extremes

State Highs State Lows

Community

WunderPhotos

Upload Photos

1,764,518 photos uploaded!

WunderBlogs® & News

Nearby

Snow Depth

Station Depth Elevation
No new snow has been reported.

Earthquake Activity

City Distance Mag. Time & Date
No recent earthquake activity has been reported nearby.
Minimum magnitude displayed is 2.5.

Coastal Water Temperatures

Place Temperature
Menominee, MI 50.0 °F

Nearby Weather Stations